Time;durP1;ratioP1;P1;durP2;ratioP2;P2;SDS_P1;SDS_P2;PMS_P1;PMS_P2;Temp;Humidity;BMP_temperature;BMP_pressure;BME280_temperature;BME280_humidity;BME280_pressure;Samples;Min_cycle;Max_cycle;Signal;HPM_P1;HPM_P2
2023/06/06 00:01:49;;;;;;;8.93;4.45;;;15.60;54.90;;;;;;5123502;27;20042;-68
2023/06/06 00:04:15;;;;;;;4.90;3.42;;;15.60;55.00;;;;;;5118528;27;20039;-68
2023/06/06 00:06:44;;;;;;;6.65;4.63;;;15.60;55.10;;;;;;5094708;28;20040;-68
2023/06/06 00:09:10;;;;;;;4.90;4.10;;;15.50;55.10;;;;;;5094516;28;20383;-68
2023/06/06 00:11:39;;;;;;;4.38;3.60;;;15.50;55.10;;;;;;5076482;28;20055;-67
2023/06/06 00:14:08;;;;;;;6.07;4.10;;;15.50;55.20;;;;;;5092481;28;20040;-67
2023/06/06 00:16:34;;;;;;;5.15;3.60;;;15.50;55.30;;;;;;5092699;28;20055;-67
2023/06/06 00:19:01;;;;;;;8.07;4.82;;;15.50;55.40;;;;;;5092760;28;20133;-67
2023/06/06 00:21:28;;;;;;;6.65;4.55;;;15.40;55.40;;;;;;5092796;28;20055;-67
2023/06/06 00:29:06;;;;;;;5.25;4.25;;;15.30;55.50;;;;;;5391140;22;20072;-69
2023/06/06 00:31:32;;;;;;;5.95;4.03;;;15.30;55.60;;;;;;5012592;28;20373;-64
2023/06/06 00:33:57;;;;;;;5.32;4.03;;;15.30;55.60;;;;;;5012708;28;20073;-64
2023/06/06 00:36:23;;;;;;;6.13;4.07;;;15.30;55.70;;;;;;5009088;28;20037;-65
2023/06/06 00:38:50;;;;;;;4.47;3.63;;;15.20;55.70;;;;;;5013978;28;20476;-65
2023/06/06 00:41:16;;;;;;;7.60;4.20;;;15.20;55.60;;;;;;5013023;28;20057;-67
2023/06/06 00:43:43;;;;;;;5.57;4.40;;;15.20;55.70;;;;;;5012829;28;20447;-67
2023/06/06 00:46:08;;;;;;;4.90;3.42;;;15.20;55.70;;;;;;5012892;28;20128;-67
2023/06/06 00:48:34;;;;;;;4.28;3.38;;;15.20;55.70;;;;;;5012513;28;20173;-67
2023/06/06 00:51:00;;;;;;;6.60;4.63;;;15.10;55.70;;;;;;5009350;28;20054;-67
2023/06/06 00:53:26;;;;;;;4.65;3.67;;;15.10;55.70;;;;;;5024212;28;20484;-67
2023/06/06 00:55:52;;;;;;;6.70;4.25;;;15.10;55.70;;;;;;5016256;28;20075;-67
2023/06/06 00:58:18;;;;;;;5.63;3.97;;;15.10;55.80;;;;;;5014348;28;20120;-67
2023/06/06 01:00:46;;;;;;;4.65;3.95;;;15.00;55.90;;;;;;5012547;28;20042;-67
2023/06/06 01:03:14;;;;;;;6.68;4.30;;;15.00;55.90;;;;;;4996269;28;20042;-68
2023/06/06 01:05:40;;;;;;;6.25;4.10;;;15.00;55.90;;;;;;5012787;28;20108;-68
2023/06/06 01:08:07;;;;;;;9.63;5.10;;;15.00;55.90;;;;;;5012800;28;20080;-68
2023/06/06 01:10:37;;;;;;;6.38;4.00;;;15.00;56.10;;;;;;5032328;28;20044;-68
2023/06/06 01:13:33;;;;;;;5.57;3.13;;;14.90;56.10;;;;;;4994471;28;20035;-67
2023/06/06 01:16:03;;;;;;;6.72;4.47;;;14.90;56.30;;;;;;5007134;28;20481;-67
2023/06/06 01:18:31;;;;;;;8.07;4.53;;;14.90;56.00;;;;;;5012457;28;20107;-67
2023/06/06 01:20:58;;;;;;;5.15;3.70;;;14.90;56.10;;;;;;4994129;28;20042;-67
2023/06/06 01:23:27;;;;;;;5.72;4.07;;;14.80;56.10;;;;;;5003382;28;20041;-67
2023/06/06 01:25:53;;;;;;;5.78;3.88;;;14.80;56.10;;;;;;5013435;28;20034;-67
2023/06/06 01:28:19;;;;;;;6.32;4.60;;;14.80;56.20;;;;;;5019503;28;20048;-67
2023/06/06 01:30:46;;;;;;;6.97;4.85;;;14.80;56.30;;;;;;5039331;28;20501;-65
2023/06/06 01:33:39;;;;;;;6.18;3.55;;;14.80;56.40;;;;;;5013065;28;20367;-65
2023/06/06 01:36:17;;;;;;;4.95;3.55;;;14.80;56.40;;;;;;5010911;28;20064;-65
2023/06/06 01:39:08;;;;;;;5.07;4.28;;;14.70;56.30;;;;;;5013276;28;20492;-65
2023/06/06 01:41:37;;;;;;;6.28;4.20;;;14.70;56.30;;;;;;5011964;28;20034;-65
2023/06/06 01:44:06;;;;;;;5.15;3.95;;;14.70;56.50;;;;;;5016164;28;20038;-65
2023/06/06 01:46:33;;;;;;;5.72;3.90;;;14.60;56.50;;;;;;5046381;28;20045;-65
2023/06/06 01:48:59;;;;;;;6.10;3.65;;;14.60;56.50;;;;;;5014619;28;20100;-67
2023/06/06 01:51:28;;;;;;;5.65;4.03;;;14.60;56.50;;;;;;5010350;28;20132;-67
2023/06/06 01:53:56;;;;;;;6.93;4.63;;;14.60;56.60;;;;;;5011351;28;20091;-67
2023/06/06 01:56:24;;;;;;;5.68;3.95;;;14.60;56.60;;;;;;5021720;28;20102;-68
2023/06/06 01:58:50;;;;;;;6.35;4.18;;;14.50;56.60;;;;;;5044516;28;20045;-67
2023/06/06 02:01:16;;;;;;;6.25;4.78;;;14.50;56.60;;;;;;5024691;28;20392;-68
2023/06/06 02:03:42;;;;;;;6.70;4.15;;;14.50;56.60;;;;;;5021088;28;20045;-67
2023/06/06 02:06:07;;;;;;;6.47;4.78;;;14.50;56.60;;;;;;5030690;28;20041;-68
2023/06/06 02:08:33;;;;;;;6.53;4.85;;;14.50;56.70;;;;;;5029960;28;20507;-67
2023/06/06 02:10:59;;;;;;;6.00;4.30;;;14.40;56.80;;;;;;5018226;28;20061;-65
2023/06/06 02:13:26;;;;;;;5.47;4.25;;;14.40;56.80;;;;;;5026892;28;20062;-65
2023/06/06 02:15:52;;;;;;;7.10;4.28;;;14.40;56.80;;;;;;5024423;28;20547;-65
2023/06/06 02:18:18;;;;;;;6.63;4.05;;;14.40;56.80;;;;;;5017445;28;20120;-66
2023/06/06 02:20:43;;;;;;;5.95;4.35;;;14.40;56.80;;;;;;5050388;28;20151;-65
2023/06/06 02:23:09;;;;;;;5.60;4.15;;;14.40;56.90;;;;;;5033399;28;20116;-65
2023/06/06 02:25:37;;;;;;;5.40;3.92;;;14.30;56.90;;;;;;5034005;28;20041;-65
2023/06/06 02:28:04;;;;;;;5.03;4.05;;;14.30;57.10;;;;;;5027055;28;20113;-65
2023/06/06 02:30:30;;;;;;;6.75;4.50;;;14.30;57.10;;;;;;5022589;28;20053;-65
2023/06/06 02:32:56;;;;;;;6.07;4.18;;;14.30;57.20;;;;;;5034170;28;20085;-65
2023/06/06 02:35:22;;;;;;;5.45;4.15;;;14.20;57.20;;;;;;5034797;28;20103;-65
2023/06/06 02:37:48;;;;;;;7.57;3.83;;;14.20;57.30;;;;;;5029418;28;20121;-65
2023/06/06 02:40:15;;;;;;;6.28;4.00;;;14.20;57.30;;;;;;5024593;28;20169;-65
2023/06/06 02:42:40;;;;;;;6.13;4.22;;;14.20;57.30;;;;;;5033209;28;20049;-65
2023/06/06 02:45:08;;;;;;;6.35;4.20;;;14.20;57.40;;;;;;5022583;28;20119;-65
2023/06/06 02:47:33;;;;;;;6.38;4.70;;;14.10;57.50;;;;;;5014692;28;20041;-65
2023/06/06 02:49:59;;;;;;;6.70;4.88;;;14.10;57.40;;;;;;5032405;28;20487;-65
2023/06/06 02:52:25;;;;;;;6.53;4.22;;;14.10;57.50;;;;;;5033877;28;20320;-65
2023/06/06 02:54:51;;;;;;;6.25;4.05;;;14.10;57.60;;;;;;5016252;28;20050;-65
2023/06/06 02:57:17;;;;;;;5.80;4.32;;;14.10;57.60;;;;;;5014770;28;20056;-65
2023/06/06 02:59:43;;;;;;;7.25;4.85;;;14.00;57.50;;;;;;5013882;28;20058;-65
2023/06/06 03:02:10;;;;;;;5.82;4.03;;;14.00;57.60;;;;;;5020956;28;20049;-65
2023/06/06 03:04:35;;;;;;;6.05;4.07;;;14.00;57.60;;;;;;5012999;28;20065;-65
2023/06/06 03:07:01;;;;;;;6.32;4.13;;;14.00;57.70;;;;;;5016007;28;20034;-65
2023/06/06 03:09:27;;;;;;;7.45;4.68;;;14.00;57.70;;;;;;5024868;28;20060;-65
2023/06/06 03:11:53;;;;;;;5.57;3.60;;;13.90;57.70;;;;;;5034133;28;20045;-65
2023/06/06 03:14:19;;;;;;;6.32;4.38;;;14.00;57.80;;;;;;5032672;28;20095;-65
2023/06/06 03:16:47;;;;;;;5.68;3.97;;;13.90;57.90;;;;;;5019804;28;20416;-65
2023/06/06 03:19:13;;;;;;;8.25;4.05;;;13.90;57.90;;;;;;5030057;28;20100;-65
2023/06/06 03:21:38;;;;;;;6.47;4.30;;;13.90;57.90;;;;;;5026438;28;20050;-65
2023/06/06 03:24:04;;;;;;;7.15;4.72;;;13.90;58.00;;;;;;5023737;28;20041;-65
2023/06/06 03:26:31;;;;;;;5.65;4.07;;;13.90;58.10;;;;;;5033641;28;20061;-65
2023/06/06 03:28:58;;;;;;;6.15;4.47;;;13.90;58.20;;;;;;5018311;28;20080;-65
2023/06/06 03:31:24;;;;;;;6.32;4.43;;;13.90;58.20;;;;;;5012677;28;20455;-65
2023/06/06 03:33:50;;;;;;;6.95;4.57;;;13.80;58.30;;;;;;5013958;28;20048;-65
2023/06/06 03:36:16;;;;;;;8.25;4.10;;;13.90;58.50;;;;;;5009869;28;20077;-65
2023/06/06 03:38:42;;;;;;;5.68;4.30;;;13.80;58.50;;;;;;5011064;28;20211;-65
2023/06/06 03:41:08;;;;;;;5.57;4.00;;;13.80;58.60;;;;;;4994114;28;20493;-65
2023/06/06 03:43:35;;;;;;;6.55;4.70;;;13.80;58.60;;;;;;4994629;28;20050;-65
2023/06/06 03:46:01;;;;;;;6.97;4.25;;;13.80;58.70;;;;;;4995718;28;20182;-65
2023/06/06 03:48:26;;;;;;;6.68;4.78;;;13.80;58.80;;;;;;5015248;28;20128;-65
2023/06/06 03:50:52;;;;;;;8.70;4.65;;;13.80;58.90;;;;;;5031396;28;20045;-65
2023/06/06 03:53:18;;;;;;;6.90;4.22;;;13.80;58.90;;;;;;4995299;28;20054;-65
2023/06/06 03:55:44;;;;;;;7.22;4.90;;;13.80;59.10;;;;;;4995783;28;20035;-65
2023/06/06 03:58:10;;;;;;;6.88;4.80;;;13.80;59.20;;;;;;5011455;28;20040;-65
2023/06/06 04:00:39;;;;;;;7.00;4.45;;;13.70;59.30;;;;;;5033650;28;20057;-65
2023/06/06 04:03:05;;;;;;;7.22;4.53;;;13.80;59.40;;;;;;5041916;28;20049;-64
2023/06/06 04:05:33;;;;;;;6.90;4.25;;;13.70;59.50;;;;;;5031769;28;20052;-65
2023/06/06 04:07:59;;;;;;;6.25;4.32;;;13.70;59.70;;;;;;5014805;28;20056;-64
2023/06/06 04:10:25;;;;;;;8.65;5.13;;;13.70;59.80;;;;;;5014959;28;20029;-65
2023/06/06 04:12:51;;;;;;;8.55;5.13;;;13.70;60.00;;;;;;5024182;28;20049;-64
2023/06/06 04:15:17;;;;;;;6.97;4.22;;;13.70;60.40;;;;;;5032986;28;20472;-65
2023/06/06 04:17:42;;;;;;;8.98;4.78;;;13.70;60.40;;;;;;5028498;28;20044;-65
2023/06/06 04:20:09;;;;;;;7.45;5.00;;;13.60;60.70;;;;;;5019388;28;20042;-65
2023/06/06 04:22:38;;;;;;;6.75;4.97;;;13.60;60.90;;;;;;5024663;28;20050;-65
2023/06/06 04:25:05;;;;;;;8.05;4.63;;;13.60;61.40;;;;;;5029533;28;20045;-65
2023/06/06 04:27:31;;;;;;;7.53;5.55;;;13.60;61.50;;;;;;5020784;28;20037;-65
2023/06/06 04:30:01;;;;;;;10.68;5.63;;;13.60;62.10;;;;;;5034094;28;20103;-65
2023/06/06 04:32:26;;;;;;;8.60;5.75;;;13.60;62.60;;;;;;5024433;28;20607;-65
2023/06/06 04:34:56;;;;;;;6.95;4.80;;;13.60;62.60;;;;;;5023178;28;20116;-65
2023/06/06 04:37:23;;;;;;;9.70;6.05;;;13.50;62.80;;;;;;5032851;28;20080;-64
2023/06/06 04:39:52;;;;;;;11.52;6.93;;;13.50;63.10;;;;;;5032785;28;20484;-65
2023/06/06 04:42:23;;;;;;;7.97;5.45;;;13.50;63.60;;;;;;5033138;28;20119;-64
2023/06/06 04:44:49;;;;;;;10.50;5.22;;;13.40;63.90;;;;;;5032965;28;20404;-64
2023/06/06 04:47:19;;;;;;;8.82;5.63;;;13.40;63.90;;;;;;5015806;28;20499;-65
2023/06/06 04:49:46;;;;;;;7.32;4.72;;;13.40;64.50;;;;;;5028566;28;20046;-65
2023/06/06 04:52:15;;;;;;;12.40;7.07;;;13.40;64.70;;;;;;5028770;28;20077;-65
2023/06/06 04:54:42;;;;;;;8.27;5.78;;;13.40;64.90;;;;;;5022116;28;20081;-65
2023/06/06 04:57:09;;;;;;;12.20;7.05;;;13.40;65.30;;;;;;5032343;28;20052;-65
2023/06/06 04:59:37;;;;;;;9.98;6.47;;;13.30;65.90;;;;;;5032158;28;20038;-65
2023/06/06 05:02:03;;;;;;;10.00;5.47;;;13.30;66.40;;;;;;5036004;28;20043;-65
2023/06/06 05:04:32;;;;;;;12.43;5.45;;;13.30;66.40;;;;;;5032282;28;20137;-65
2023/06/06 05:06:59;;;;;;;9.50;6.68;;;13.30;66.80;;;;;;5032178;28;20041;-65
2023/06/06 05:09:26;;;;;;;11.88;6.90;;;13.30;67.50;;;;;;5017184;28;20060;-65
2023/06/06 05:11:54;;;;;;;10.73;6.80;;;13.40;68.10;;;;;;5022378;28;20378;-66
2023/06/06 05:14:23;;;;;;;10.30;6.45;;;13.50;68.90;;;;;;5013679;28;20044;-66
2023/06/06 05:16:57;;;;;;;11.55;7.00;;;13.60;69.40;;;;;;5015832;28;20045;-65
2023/06/06 05:19:22;;;;;;;9.80;6.43;;;13.80;69.80;;;;;;5012384;28;20050;-65
2023/06/06 05:21:48;;;;;;;8.55;5.38;;;14.00;69.10;;;;;;5013650;28;20048;-65
2023/06/06 05:24:15;;;;;;;9.25;5.30;;;14.20;68.50;;;;;;5013942;28;20493;-66
2023/06/06 05:26:44;;;;;;;13.00;5.38;;;14.30;67.90;;;;;;5034519;28;20099;-65
2023/06/06 05:29:10;;;;;;;11.52;5.70;;;14.50;67.70;;;;;;5014108;28;20049;-65
2023/06/06 05:31:36;;;;;;;11.75;5.72;;;14.70;67.20;;;;;;5023957;28;20049;-66
2023/06/06 05:34:03;;;;;;;11.13;5.72;;;15.00;66.60;;;;;;5020511;28;20349;-65
2023/06/06 05:36:29;;;;;;;6.80;4.90;;;15.20;66.00;;;;;;5048299;28;20111;-65
2023/06/06 05:38:55;;;;;;;10.55;5.50;;;15.40;65.30;;;;;;5025285;28;20038;-66
2023/06/06 05:41:20;;;;;;;9.73;6.00;;;15.60;64.80;;;;;;5012010;28;20045;-66
2023/06/06 05:43:47;;;;;;;9.00;5.70;;;15.80;64.60;;;;;;5015609;28;20042;-65
2023/06/06 05:46:13;;;;;;;8.27;4.57;;;16.10;64.50;;;;;;5011983;28;20073;-66
2023/06/06 05:48:40;;;;;;;13.25;5.65;;;16.40;63.30;;;;;;4995606;28;20054;-66
2023/06/06 05:51:07;;;;;;;10.77;5.65;;;16.80;62.30;;;;;;5011888;28;20052;-66
2023/06/06 05:53:32;;;;;;;10.88;4.32;;;17.00;61.60;;;;;;5024137;28;20400;-66
2023/06/06 05:55:58;;;;;;;9.65;4.90;;;17.10;60.20;;;;;;5032726;28;20046;-66
2023/06/06 05:58:24;;;;;;;11.02;4.88;;;17.30;59.80;;;;;;5030531;28;20095;-66
2023/06/06 06:00:50;;;;;;;10.48;5.50;;;17.40;59.70;;;;;;5048189;28;20116;-66
2023/06/06 06:03:16;;;;;;;11.13;5.03;;;17.60;59.00;;;;;;5027068;28;20400;-65
2023/06/06 06:05:42;;;;;;;9.23;4.47;;;17.70;58.40;;;;;;5014024;28;20499;-66
2023/06/06 06:08:08;;;;;;;10.43;4.78;;;17.80;58.50;;;;;;5012938;28;20071;-65
2023/06/06 06:10:35;;;;;;;9.80;4.35;;;18.00;58.00;;;;;;4995229;28;20404;-64
2023/06/06 06:13:02;;;;;;;7.65;3.80;;;18.20;57.70;;;;;;5026583;28;20507;-64
2023/06/06 06:15:32;;;;;;;8.13;4.70;;;18.20;57.10;;;;;;5030897;28;20433;-64
2023/06/06 06:17:58;;;;;;;10.35;4.78;;;18.30;56.80;;;;;;5042584;28;20065;-64
2023/06/06 06:20:24;;;;;;;10.43;4.82;;;18.40;56.50;;;;;;5018450;28;20034;-64
2023/06/06 06:22:49;;;;;;;11.23;4.50;;;18.50;56.30;;;;;;5030951;28;20080;-65
2023/06/06 06:25:16;;;;;;;11.32;4.53;;;18.60;56.20;;;;;;5031253;28;20128;-64
2023/06/06 06:27:46;;;;;;;8.25;4.03;;;18.70;56.40;;;;;;5030875;28;20387;-64
2023/06/06 06:30:13;;;;;;;11.05;4.93;;;19.00;56.00;;;;;;5029505;28;20081;-65
2023/06/06 06:32:41;;;;;;;9.05;3.65;;;19.30;55.60;;;;;;5032419;28;20125;-65
2023/06/06 06:35:11;;;;;;;8.23;3.63;;;19.50;54.80;;;;;;5030604;28;20044;-65
2023/06/06 06:37:38;;;;;;;11.65;4.53;;;19.70;54.30;;;;;;5032248;28;20048;-65
2023/06/06 06:40:06;;;;;;;9.35;4.10;;;19.90;54.10;;;;;;5030052;28;20042;-64
2023/06/06 06:42:32;;;;;;;10.77;4.50;;;20.20;53.80;;;;;;5012565;28;20060;-64
2023/06/06 06:44:58;;;;;;;10.25;4.50;;;20.50;52.90;;;;;;5011846;28;20132;-64
2023/06/06 06:47:23;;;;;;;9.57;4.22;;;20.60;52.10;;;;;;4995841;28;20477;-65
2023/06/06 06:49:49;;;;;;;9.45;4.35;;;20.80;51.40;;;;;;5011255;28;20042;-64
2023/06/06 06:52:16;;;;;;;10.27;5.07;;;20.80;51.10;;;;;;5025438;28;20037;-64
2023/06/06 06:54:54;;;;;;;9.07;4.65;;;20.90;50.80;;;;;;5032320;28;20041;-64
2023/06/06 06:57:26;;;;;;;6.82;4.30;;;21.00;50.60;;;;;;5025086;28;20060;-64
2023/06/06 06:59:52;;;;;;;8.77;4.97;;;21.10;50.40;;;;;;5011517;28;20092;-65
2023/06/06 07:02:19;;;;;;;13.88;5.45;;;21.20;50.20;;;;;;5014837;28;20045;-65
2023/06/06 07:04:47;;;;;;;8.43;4.32;;;21.30;49.60;;;;;;5033034;28;20124;-65
2023/06/06 07:07:16;;;;;;;7.28;3.53;;;21.40;49.30;;;;;;5034431;28;20038;-65
2023/06/06 07:09:43;;;;;;;6.88;4.25;;;21.40;48.70;;;;;;5026241;28;20041;-65
2023/06/06 07:12:12;;;;;;;11.98;5.30;;;21.30;49.00;;;;;;5018897;28;20077;-65
2023/06/06 07:14:38;;;;;;;8.35;4.45;;;21.30;49.30;;;;;;5016048;28;20120;-66
2023/06/06 07:17:05;;;;;;;9.18;4.30;;;21.30;49.50;;;;;;5018289;28;20042;-67
2023/06/06 07:19:31;;;;;;;8.60;4.47;;;21.30;49.50;;;;;;5022590;28;20041;-65
2023/06/06 07:21:57;;;;;;;9.75;4.60;;;21.40;49.70;;;;;;5026858;28;20050;-65
2023/06/06 07:24:23;;;;;;;8.60;4.03;;;21.50;49.80;;;;;;5014493;28;20052;-65
2023/06/06 07:26:51;;;;;;;11.45;5.18;;;21.70;49.50;;;;;;5026585;28;20040;-65
2023/06/06 07:29:17;;;;;;;7.85;4.03;;;21.80;49.10;;;;;;5035172;28;20060;-66
2023/06/06 07:31:43;;;;;;;10.63;4.85;;;21.90;49.20;;;;;;5035301;28;20128;-65
2023/06/06 07:34:09;;;;;;;8.88;4.93;;;22.00;49.10;;;;;;5017791;28;20175;-65
2023/06/06 07:36:36;;;;;;;9.95;4.93;;;22.00;49.20;;;;;;5033759;28;20033;-65
2023/06/06 07:39:02;;;;;;;8.73;5.13;;;22.10;48.80;;;;;;5035400;28;20107;-65
2023/06/06 07:41:31;;;;;;;8.65;4.80;;;22.20;48.20;;;;;;5035154;28;20879;-65
2023/06/06 07:44:01;;;;;;;9.40;5.03;;;22.20;47.80;;;;;;5033542;28;20488;-65
2023/06/06 07:46:27;;;;;;;8.15;4.55;;;22.30;47.80;;;;;;5034075;28;20392;-65
2023/06/06 07:48:52;;;;;;;9.40;4.38;;;22.30;48.10;;;;;;5035093;28;20041;-65
2023/06/06 07:51:18;;;;;;;9.27;4.93;;;22.30;47.80;;;;;;5019580;28;20038;-66
2023/06/06 07:53:44;;;;;;;8.95;4.80;;;22.40;47.70;;;;;;5010640;28;20046;-65
2023/06/06 07:56:13;;;;;;;7.32;5.00;;;22.40;47.80;;;;;;4994497;28;20504;-65
2023/06/06 07:58:43;;;;;;;8.13;5.07;;;22.30;48.20;;;;;;5015523;28;20030;-65
2023/06/06 08:01:13;;;;;;;8.20;4.45;;;22.40;48.30;;;;;;5033593;28;20076;-66
2023/06/06 08:03:39;;;;;;;8.48;4.63;;;22.40;48.20;;;;;;5026930;28;20072;-65
2023/06/06 08:06:05;;;;;;;7.32;4.35;;;22.50;48.20;;;;;;5015288;28;20042;-65
2023/06/06 08:08:31;;;;;;;11.73;5.35;;;22.50;47.40;;;;;;5034179;28;20182;-65
2023/06/06 08:10:57;;;;;;;8.48;5.13;;;22.60;47.60;;;;;;5034688;28;20120;-65
2023/06/06 08:13:23;;;;;;;9.75;4.68;;;22.60;47.70;;;;;;5033385;28;20469;-65
2023/06/06 08:15:49;;;;;;;10.02;5.00;;;22.60;47.90;;;;;;5033206;28;20041;-66
2023/06/06 08:18:15;;;;;;;6.22;3.90;;;22.70;47.80;;;;;;5025765;28;20048;-66
2023/06/06 08:20:40;;;;;;;6.43;4.20;;;22.70;47.50;;;;;;5017413;28;20048;-65
2023/06/06 08:23:06;;;;;;;8.35;4.80;;;22.80;47.60;;;;;;5034550;28;20037;-66
2023/06/06 08:25:33;;;;;;;5.70;3.08;;;22.90;47.00;;;;;;5033438;28;20060;-66
2023/06/06 08:27:59;;;;;;;10.43;4.28;;;22.90;46.90;;;;;;5031184;28;20476;-66
2023/06/06 08:30:25;;;;;;;6.53;4.20;;;22.90;46.80;;;;;;5034015;28;20045;-66
2023/06/06 08:32:51;;;;;;;7.07;3.55;;;23.10;47.30;;;;;;5032885;28;20075;-66
2023/06/06 08:35:19;;;;;;;6.55;3.92;;;23.10;46.80;;;;;;5033705;28;20038;-65
2023/06/06 08:37:45;;;;;;;7.40;4.03;;;23.10;46.40;;;;;;5031294;28;20049;-65
2023/06/06 08:40:12;;;;;;;7.10;3.88;;;23.10;46.50;;;;;;5032744;28;20065;-65
2023/06/06 08:42:42;;;;;;;8.32;4.63;;;23.10;46.40;;;;;;5033986;28;20046;-65
2023/06/06 08:45:08;;;;;;;6.45;3.88;;;23.00;45.90;;;;;;5033998;28;20191;-65
2023/06/06 08:47:36;;;;;;;8.35;3.40;;;22.90;46.00;;;;;;5032562;28;20048;-65
2023/06/06 08:50:04;;;;;;;5.68;4.03;;;22.90;46.40;;;;;;5031914;28;20385;-65
2023/06/06 08:52:36;;;;;;;5.32;3.45;;;23.00;46.10;;;;;;5021634;28;20057;-65
2023/06/06 08:55:03;;;;;;;10.18;4.13;;;23.10;46.20;;;;;;5032546;28;20046;-65
2023/06/06 08:57:29;;;;;;;8.23;3.55;;;23.20;46.00;;;;;;5031181;28;20048;-65
2023/06/06 08:59:55;;;;;;;8.73;3.80;;;23.20;46.20;;;;;;5012174;28;20096;-65
2023/06/06 09:02:22;;;;;;;9.45;4.32;;;23.20;45.70;;;;;;5013463;28;20038;-65
2023/06/06 09:04:48;;;;;;;7.32;4.03;;;23.10;46.20;;;;;;5027471;28;20128;-65
2023/06/06 09:07:15;;;;;;;6.97;3.97;;;23.10;46.00;;;;;;5048842;28;20120;-65
2023/06/06 09:09:45;;;;;;;7.10;3.83;;;23.10;45.80;;;;;;5032233;28;20045;-65
2023/06/06 09:12:11;;;;;;;7.38;4.03;;;23.20;46.40;;;;;;5032074;28;20049;-65
2023/06/06 09:14:37;;;;;;;7.78;4.00;;;23.20;45.80;;;;;;5032105;28;20079;-65
2023/06/06 09:17:03;;;;;;;6.80;4.00;;;23.20;46.30;;;;;;5030395;28;20064;-65
2023/06/06 09:19:30;;;;;;;10.95;4.70;;;23.10;46.60;;;;;;5029946;28;20463;-65
2023/06/06 09:21:58;;;;;;;7.43;4.22;;;23.10;46.10;;;;;;5032149;28;20049;-65
2023/06/06 09:24:24;;;;;;;5.78;4.13;;;23.00;45.80;;;;;;5031937;28;20055;-65
2023/06/06 09:26:50;;;;;;;8.30;4.78;;;23.00;46.40;;;;;;5048437;28;20084;-65
2023/06/06 09:29:16;;;;;;;8.73;3.92;;;23.00;46.60;;;;;;5030402;28;20073;-65
2023/06/06 09:31:42;;;;;;;10.52;4.22;;;23.10;47.00;;;;;;5032584;28;20099;-65
2023/06/06 09:34:09;;;;;;;9.00;4.15;;;23.20;47.00;;;;;;5030317;28;20401;-65
2023/06/06 09:36:40;;;;;;;7.63;4.05;;;23.30;46.80;;;;;;5032817;28;20037;-64
2023/06/06 09:39:11;;;;;;;6.60;3.47;;;23.30;46.20;;;;;;5015343;28;20076;-65
2023/06/06 09:41:41;;;;;;;6.43;3.63;;;23.30;46.70;;;;;;5031866;28;20049;-64
2023/06/06 09:44:16;;;;;;;8.43;4.35;;;23.40;46.50;;;;;;5032136;28;20087;-64
2023/06/06 09:46:41;;;;;;;7.78;4.32;;;23.50;45.90;;;;;;5031665;28;20046;-65
2023/06/06 09:49:10;;;;;;;7.72;4.50;;;23.40;46.40;;;;;;5022959;28;20042;-64
2023/06/06 09:51:41;;;;;;;7.95;3.67;;;23.50;46.10;;;;;;5026901;28;20480;-65
2023/06/06 09:54:09;;;;;;;6.28;4.57;;;23.60;45.80;;;;;;5013186;28;20056;-64
2023/06/06 09:56:39;;;;;;;6.03;4.00;;;23.60;45.30;;;;;;5012152;28;20042;-64
2023/06/06 09:59:06;;;;;;;7.28;4.57;;;23.70;45.70;;;;;;4996355;28;20117;-64
2023/06/06 10:01:35;;;;;;;8.85;4.47;;;23.70;45.50;;;;;;5013818;28;20034;-64
2023/06/06 10:04:03;;;;;;;7.45;4.90;;;23.70;45.90;;;;;;5021525;28;20045;-64
2023/06/06 10:06:38;;;;;;;7.53;4.57;;;23.60;46.30;;;;;;5003239;28;20046;-64
2023/06/06 10:09:05;;;;;;;8.88;4.28;;;23.60;46.40;;;;;;5009996;28;20133;-64
2023/06/06 10:11:33;;;;;;;8.23;4.90;;;23.60;45.90;;;;;;5011894;28;20042;-65
2023/06/06 10:14:01;;;;;;;7.35;4.05;;;23.60;46.00;;;;;;5011498;28;20053;-65
2023/06/06 10:16:29;;;;;;;7.68;4.15;;;23.60;46.20;;;;;;5012761;28;20034;-65
2023/06/06 10:18:56;;;;;;;8.18;4.65;;;23.60;46.70;;;;;;5011207;28;20042;-64
2023/06/06 10:21:24;;;;;;;6.88;4.35;;;23.70;46.50;;;;;;5014620;28;20048;-65
2023/06/06 10:23:51;;;;;;;6.95;3.80;;;23.80;46.70;;;;;;5012760;28;20489;-65
2023/06/06 10:26:31;;;;;;;9.55;4.63;;;23.90;46.40;;;;;;5011535;28;20485;-64
2023/06/06 10:29:06;;;;;;;9.10;5.10;;;24.00;46.30;;;;;;5011051;28;20054;-64
2023/06/06 10:31:50;;;;;;;6.20;4.30;;;24.10;46.00;;;;;;5012699;28;20046;-65
2023/06/06 10:34:21;;;;;;;;;;;24.20;45.80;;;;;;5012130;28;20050;-65
2023/06/06 10:36:47;;;;;;;7.90;4.20;;;24.30;46.20;;;;;;5013820;28;19952;-65
2023/06/06 10:39:23;;;;;;;7.43;3.92;;;24.30;45.70;;;;;;5011533;28;20161;-65
2023/06/06 10:41:54;;;;;;;8.63;4.72;;;24.30;45.80;;;;;;5016755;28;20034;-65
2023/06/06 10:44:35;;;;;;;6.68;4.43;;;24.30;45.80;;;;;;5016706;28;20042;-65
2023/06/06 10:47:28;;;;;;;7.90;4.57;;;24.40;45.30;;;;;;5016497;28;20129;-65
2023/06/06 10:50:12;;;;;;;9.63;4.85;;;24.40;44.40;;;;;;5016485;28;20135;-65
2023/06/06 10:53:06;;;;;;;9.13;5.03;;;24.40;45.00;;;;;;5014964;28;20470;-65
2023/06/06 10:55:32;;;;;;;7.90;5.00;;;24.40;45.10;;;;;;5034736;28;20500;-65
2023/06/06 10:58:10;;;;;;;11.73;5.35;;;24.40;45.30;;;;;;5020870;28;20420;-65
2023/06/06 11:00:44;;;;;;;8.02;5.03;;;24.50;44.90;;;;;;5014677;28;20053;-65
2023/06/06 11:03:13;;;;;;;7.53;4.28;;;24.40;44.70;;;;;;5031222;28;20060;-65
2023/06/06 11:06:01;;;;;;;10.15;5.35;;;24.50;45.20;;;;;;5020679;28;20049;-65
2023/06/06 11:08:48;;;;;;;6.07;4.07;;;24.50;45.00;;;;;;5010161;28;20351;-65
2023/06/06 11:11:22;;;;;;;10.98;4.53;;;24.60;45.00;;;;;;5010548;28;20041;-65
2023/06/06 11:14:07;;;;;;;;;;;24.60;45.00;;;;;;5012169;28;20461;-65
2023/06/06 11:16:39;;;;;;;8.95;4.53;;;24.60;44.40;;;;;;5024872;28;19917;-65
2023/06/06 11:19:09;;;;;;;9.32;5.45;;;24.70;45.10;;;;;;5009034;28;20045;-65
2023/06/06 11:21:38;;;;;;;8.68;5.63;;;24.70;44.40;;;;;;4992254;28;20096;-65
2023/06/06 11:24:05;;;;;;;8.93;5.43;;;24.70;44.50;;;;;;5010148;28;20107;-64
2023/06/06 11:26:33;;;;;;;7.07;4.20;;;24.70;44.60;;;;;;5009140;28;20176;-64
2023/06/06 11:29:00;;;;;;;9.73;5.10;;;24.80;44.70;;;;;;5008251;28;20125;-65
2023/06/06 11:31:27;;;;;;;7.93;4.35;;;24.80;44.10;;;;;;5009647;28;20045;-64
2023/06/06 11:34:02;;;;;;;7.03;5.05;;;24.80;44.10;;;;;;5009236;28;20104;-64
2023/06/06 11:36:29;;;;;;;7.90;4.75;;;24.80;43.80;;;;;;5008132;28;20041;-64
2023/06/06 11:39:03;;;;;;;9.50;4.82;;;24.80;44.30;;;;;;5008376;28;20050;-64
2023/06/06 11:41:29;;;;;;;7.63;5.07;;;24.80;43.70;;;;;;5008522;28;20751;-64
2023/06/06 11:43:55;;;;;;;7.70;5.13;;;24.70;44.10;;;;;;5008547;28;20050;-64
2023/06/06 11:46:21;;;;;;;11.05;4.97;;;24.70;44.10;;;;;;5007570;28;20049;-64
2023/06/06 11:48:55;;;;;;;6.57;4.60;;;24.70;44.30;;;;;;5008615;28;20038;-64
2023/06/06 11:51:21;;;;;;;8.75;4.68;;;24.70;44.00;;;;;;5009341;28;20064;-64
2023/06/06 11:53:48;;;;;;;7.72;4.28;;;24.70;44.30;;;;;;5011358;28;20469;-64
2023/06/06 11:56:17;;;;;;;7.95;4.85;;;24.70;44.30;;;;;;5008287;28;20126;-64
2023/06/06 11:58:43;;;;;;;8.70;4.93;;;24.80;44.00;;;;;;5008933;28;20054;-64
2023/06/06 12:01:10;;;;;;;7.50;4.75;;;24.90;44.20;;;;;;5009415;28;20038;-64
2023/06/06 12:03:40;;;;;;;7.10;4.95;;;24.90;44.10;;;;;;5007866;28;21412;-64
2023/06/06 12:06:07;;;;;;;7.53;4.43;;;24.90;43.80;;;;;;4990691;28;20077;-64
2023/06/06 12:08:37;;;;;;;10.57;5.43;;;25.00;43.70;;;;;;5009342;28;20495;-65
2023/06/06 12:11:32;;;;;;;9.80;5.53;;;25.00;42.80;;;;;;5008798;28;20042;-65
2023/06/06 12:13:58;;;;;;;7.68;5.72;;;25.00;43.20;;;;;;5009387;28;20085;-65
2023/06/06 12:16:28;;;;;;;6.90;5.38;;;25.00;43.20;;;;;;5009153;28;20069;-64
2023/06/06 12:18:54;;;;;;;7.88;5.60;;;25.00;43.90;;;;;;5009966;28;20034;-64
2023/06/06 12:21:21;;;;;;;12.20;5.68;;;25.00;43.60;;;;;;5009211;28;20045;-64
2023/06/06 12:23:48;;;;;;;8.63;4.65;;;25.00;43.30;;;;;;5009488;28;20046;-64
2023/06/06 12:26:18;;;;;;;9.43;5.68;;;25.10;43.70;;;;;;5008992;28;20460;-64
2023/06/06 12:28:58;;;;;;;11.43;5.50;;;25.10;43.20;;;;;;5007123;28;20061;-64
2023/06/06 12:31:25;;;;;;;8.95;5.43;;;25.10;43.60;;;;;;5007400;28;20054;-64
2023/06/06 12:33:53;;;;;;;9.80;5.57;;;25.10;43.70;;;;;;5007585;28;20128;-64
2023/06/06 12:36:21;;;;;;;9.55;5.00;;;25.10;43.50;;;;;;5021450;28;20037;-64
2023/06/06 12:39:01;;;;;;;13.52;5.97;;;25.20;43.70;;;;;;5008387;28;20104;-64
2023/06/06 12:41:41;;;;;;;8.07;5.55;;;25.20;42.90;;;;;;5006883;28;20046;-64
2023/06/06 12:44:15;;;;;;;7.30;5.03;;;25.20;43.00;;;;;;5005957;28;20041;-66
2023/06/06 12:46:42;;;;;;;6.25;5.47;;;25.20;43.30;;;;;;5008029;28;20053;-67
2023/06/06 12:49:09;;;;;;;6.75;4.53;;;25.10;42.80;;;;;;5004669;28;20176;-64
2023/06/06 12:51:38;;;;;;;10.13;5.80;;;25.00;43.70;;;;;;5002777;28;20053;-64
2023/06/06 12:54:05;;;;;;;9.55;5.85;;;24.90;43.60;;;;;;5004016;28;20045;-64
2023/06/06 12:56:31;;;;;;;8.70;5.38;;;24.80;44.10;;;;;;5001435;28;20053;-64